ARBO2: Arbuckle Lake

                                SHEF ID:       ARBO2     Arbuckle Lake
STATION TYPE: RESERVOIR
Flood Pool: Bottom = 872.00, Top = 885.30

PRECIP PRECIP(A) ELEVATION STORAGE INFLOW RELEASEWIND-SPEED VOLTAGE BAT-LOAD
in in ft ac-ft cfs cfs mph volt volt
Ccp-Rev Ccp-Rev Ccp-Rev Ccp-Rev Rev-Regi Rev-Regi Ccp-Rev Ccp-Rev Ccp-Rev
(America/Chicago)
04/28 00:00 0.00 ---- 873.51 76018 0 1 ---- 13.05 12.89
04/28 01:00 0.00 ---- 873.50 75993 0 1 ---- 13.05 12.89
04/28 02:00 0.00 ---- 873.50 75993 0 1 ---- 13.05 12.89
04/28 03:00 0.00 ---- 873.49 75969 0 1 ---- 13.05 12.89
04/28 04:00 0.00 ---- 873.50 75993 0 1 ---- 13.05 12.89
04/28 05:00 0.00 ---- 873.49 75969 0 1 ---- 13.05 12.89
04/28 06:00 0.00 ---- 873.49 75969 0 1 ---- 13.05 12.89
04/28 07:00 0.00 ---- 873.49 75969 0 1 ---- 13.05 12.89
04/28 08:00 0.00 ---- 873.48 75945 103 1 ---- 13.05 12.89
04/28 09:00 0.00 ---- 873.48 75945 103 1 ---- 13.05 12.89
04/28 10:00 0.14 ---- 873.51 76018 103 1 ---- 13.05 12.89
04/28 11:00 0.00 ---- 873.50 75993 103 1 ---- 13.05 12.89
04/28 12:00 0.00 ---- 873.50 75993 155 1 ---- 13.05 12.89
04/28 13:00 0.00 ---- 873.50 75993 308 1 ---- 13.05 12.89
04/28 14:00 0.00 ---- 873.51 76018 462 1 ---- 13.05 12.89
04/28 15:00 0.51 ---- 873.56 76140 801 1 ---- 13.05 12.89
04/28 16:00 0.06 ---- 873.59 76213 1026 1 ---- 13.05 12.97
04/28 17:00 0.00 ---- 873.65 76359 1144 1 ---- 13.05 12.89
04/28 18:00 0.00 ---- 873.69 76456 1006 1 ---- 13.05 12.89
04/28 19:00 0.00 ---- 873.72 76529 911 1 ---- 13.05 12.89
04/28 20:00 0.00 ---- 873.74 76578 631 1 ---- 13.05 12.89
04/28 21:00 0.00 ---- 873.75 76602 465 1 ---- 13.05 12.89
04/28 22:00 0.00 ---- 873.76 76627 355 1 ---- 13.05 12.89
04/28 23:00 0.00 ---- 873.77 76651 ---- ---- ---- 13.05 12.89
Data processed at Wed 29Apr2026 04:03 GMT

NOTICE: If you are parsing this page

Please convert to using our Data API. Starting early 2026 we will be migrating to: https://water.usace.army.mil with modern pages rendered in JavaScript. When this migration completes you will no longer be able to scrape this page! CWMSDataAPI (CDA)

Timeseries IDs (TSIDs)

TSIDs used from left to right in the data table
ARBU.Precip-Inc.Total.1Hour.1Hour.Ccp-Rev
ARBU.Precip-Inc Alt.Total.1Hour.1Hour.Ccp-Rev
ARBU.Elev.Inst.1Hour.0.Ccp-Rev
ARBU.Stor.Inst.1Hour.0.Ccp-Rev
ARBU.Flow-Res In.Ave.1Hour.1Hour.Rev-Regi-Computed
ARBU.Flow-Res Out.Inst.1Hour.0.Rev-Regi-Flowgroup
ARBU.Volt-Battery.Inst.1Hour.0.Ccp-Rev
ARBU.Volt-Battery Load.Inst.1Hour.0.Ccp-Rev

                            

All information presented herein is the property of the government of the United States of America and may be revised or deleted at any time without prior notice. Dissemination of this information without the expressed written consent of the Public Affairs Office, Tulsa District U.S. Army Corps of Engineers is strictly prohibited. These data are gathered electronically and, as presented, have NOT undergone any form of quality control. These data are NOT guaranteed to be valid or correct.